Eielson Air Force Base
PAEI : rendu visible

Aérodrome :











RETROUVEZ-NOUS SUR...

 
LOGIN :

S'inscrire | Disclaimer

   EN    FR    IT 

 









Légende :    VFR   VFR Marginal   IFR   IFR Intensif   IFR Très Intensif
Visi : 
Plafond : 
>= 8 km
>= 3000ft
5 à 8 km
1000 à 3000 ft
1500m à 5 km
500 à 1000 ft
800 à 1500m
200 à 500 ft
< 800m
< 200 ft
Symboles :   Orages  Brouillard  Fortes neiges  Fortes précipitations  Vent > 20 kt






- Altitude de l'aérodrome : 547 ft
- Code IATA : EIL


PAEI - Eielson Air Force Base

DERNIER METAR :
  • 070056Z 00000KT 10SM BKN085 M29/M33 A2976 RMK AO2A SLP103 T12881328 $

METARs EXPIRÉS :
  • 062356Z 00000KT 8SM SCT060 M29/M34 A2977 RMK AO2A SLP107 4/013 T12951336 11288 21328 58012 $
  • 062256Z 35004KT 10SM FEW060 M29/M33 A2979 RMK AO2A SLP114 T12931335 $

TAF TAF PAEI
Valide du 06 à 20h jusqu'au 08 à 02h UTC


062000Z 0620/0802 VRB03KT 9999 FEW200 QNH2977INS
BECMG 0622/0623 VRB04KT 9999 FEW080 SCT120 QNH2965INS
BECMG 0702/0703 08009KT 9999 SCT050 BKN100 QNH2949INS
BECMG 0717/0718 16008KT 9999 SCT030 BKN070 600703 QNH2940INS TXM18/0712Z TNM32/0620Z



MET'MAP, la Météo Aéronautique d'un coup d'oeil ! - Copyright ORBIFLY Décembre 2007 - Disclaimer

ORBIFLY MET'MAP TEAM :

Programmation & Développement : Alexandra Zaïnal
Sur une idée originale de : Baudouin d'Aumeries
Assistance à la programmation : Marc-Olivier Méhu
Soutien technique & logistique : Manuel Goepfert

Contact : metmap@orbifly.com




SOURCES & CREDITS :

   NOAA       Earth
Advisory